Time;durP1;ratioP1;P1;durP2;ratioP2;P2;SDS_P1;SDS_P2;PMS_P1;PMS_P2;Temp;Humidity;BMP_temperature;BMP_pressure;BME280_temperature;BME280_humidity;BME280_pressure;Samples;Min_cycle;Max_cycle;Signal;HPM_P1;HPM_P2
2022/06/28 00:00:38;;;;;;;13.13;9.05;;;13.30;99.90;;;;;;5091995;28;20528;-77
2022/06/28 00:03:04;;;;;;;12.70;8.82;;;13.30;99.90;;;;;;5092290;28;20407;-77
2022/06/28 00:05:30;;;;;;;13.80;10.00;;;13.20;99.90;;;;;;5092128;28;20036;-76
2022/06/28 00:07:56;;;;;;;12.80;9.00;;;13.20;99.90;;;;;;5092090;28;20048;-77
2022/06/28 00:10:22;;;;;;;13.15;10.05;;;13.20;99.90;;;;;;5091860;28;20055;-78
2022/06/28 00:12:48;;;;;;;12.15;8.98;;;13.30;99.90;;;;;;5092263;28;20131;-77
2022/06/28 00:17:59;;;;;;;12.25;9.00;;;13.00;99.90;;;;;;5091840;28;20052;-77
2022/06/28 00:20:25;;;;;;;13.77;10.25;;;13.00;99.90;;;;;;5091790;28;20086;-77
2022/06/28 00:22:50;;;;;;;16.77;9.70;;;13.00;99.90;;;;;;5091803;28;20044;-78
2022/06/28 00:25:16;;;;;;;10.90;8.57;;;13.10;99.90;;;;;;5091777;28;20040;-78
2022/06/28 00:27:42;;;;;;;13.38;9.20;;;13.00;99.90;;;;;;5091935;28;20044;-78
2022/06/28 00:30:09;;;;;;;13.40;9.32;;;13.00;99.90;;;;;;5091709;28;20039;-77
2022/06/28 00:32:35;;;;;;;12.88;8.98;;;13.00;99.90;;;;;;5091612;28;20072;-77
2022/06/28 00:35:02;;;;;;;17.17;9.13;;;12.90;99.90;;;;;;5091600;28;20470;-78
2022/06/28 00:37:28;;;;;;;12.90;8.02;;;12.90;99.90;;;;;;5091264;28;20075;-77
2022/06/28 00:39:54;;;;;;;12.65;8.13;;;12.90;99.90;;;;;;5091310;28;20095;-77
2022/06/28 00:42:20;;;;;;;11.95;8.50;;;12.90;99.90;;;;;;5091547;28;20051;-77
2022/06/28 00:44:46;;;;;;;12.35;8.35;;;13.20;99.90;;;;;;5091123;28;20040;-77
2022/06/28 00:47:14;;;;;;;12.60;8.07;;;12.80;99.90;;;;;;5091445;28;20491;-77
2022/06/28 00:49:41;;;;;;;9.90;7.40;;;12.80;99.90;;;;;;5091190;28;20507;-77
2022/06/28 00:52:08;;;;;;;12.27;8.63;;;12.90;99.90;;;;;;5091460;28;20052;-76
2022/06/28 00:54:34;;;;;;;11.88;7.85;;;12.80;99.90;;;;;;5089663;28;20051;-76
2022/06/28 00:57:00;;;;;;;11.68;8.55;;;12.90;99.90;;;;;;5090965;28;20044;-77
2022/06/28 00:59:26;;;;;;;11.13;7.90;;;12.70;99.90;;;;;;5072731;28;20052;-77
2022/06/28 01:01:52;;;;;;;12.88;8.63;;;12.70;99.90;;;;;;5091063;28;20044;-77
2022/06/28 01:04:18;;;;;;;10.38;7.70;;;12.70;99.90;;;;;;5091095;28;20058;-76
2022/06/28 01:06:44;;;;;;;11.10;8.07;;;12.70;99.90;;;;;;5090904;28;20044;-76
2022/06/28 01:09:10;;;;;;;9.88;7.70;;;12.70;99.90;;;;;;5090718;28;20087;-76
2022/06/28 01:11:36;;;;;;;11.30;8.05;;;12.70;99.90;;;;;;5090820;28;20044;-78
2022/06/28 01:14:08;;;;;;;12.77;7.38;;;12.70;99.90;;;;;;5091100;28;20055;-77
2022/06/28 01:16:35;;;;;;;11.38;7.60;;;12.60;99.90;;;;;;5090741;28;20059;-77
2022/06/28 01:19:01;;;;;;;14.32;8.10;;;12.60;99.90;;;;;;5072991;28;20101;-78
2022/06/28 01:21:29;;;;;;;13.60;8.10;;;12.60;99.90;;;;;;5091057;28;20058;-77
2022/06/28 01:23:56;;;;;;;10.57;7.63;;;12.50;99.90;;;;;;5090978;28;20100;-78
2022/06/28 01:26:23;;;;;;;12.52;7.38;;;12.50;99.90;;;;;;5072863;28;20083;-77
2022/06/28 01:28:50;;;;;;;13.50;7.30;;;12.50;99.90;;;;;;5090574;28;20048;-77
2022/06/28 01:31:18;;;;;;;11.73;7.90;;;12.50;99.90;;;;;;5090492;28;20086;-77
2022/06/28 01:33:44;;;;;;;14.55;6.88;;;12.50;99.90;;;;;;5090573;28;20475;-77
2022/06/28 01:36:13;;;;;;;10.27;7.60;;;12.50;99.90;;;;;;5090655;28;20101;-77
2022/06/28 01:38:40;;;;;;;11.60;7.32;;;12.50;99.90;;;;;;5089960;28;20498;-77
2022/06/28 01:41:07;;;;;;;10.20;7.75;;;12.50;99.90;;;;;;5090760;28;20139;-77
2022/06/28 01:43:35;;;;;;;13.32;7.40;;;12.60;99.90;;;;;;5072299;28;20051;-77
2022/06/28 01:46:04;;;;;;;9.02;7.20;;;12.60;99.90;;;;;;5090321;28;20055;-78
2022/06/28 01:48:32;;;;;;;11.48;7.95;;;12.60;99.90;;;;;;5090460;28;20487;-78
2022/06/28 01:50:57;;;;;;;11.60;8.23;;;12.40;99.90;;;;;;5090268;28;20491;-78
2022/06/28 01:53:23;;;;;;;10.82;7.93;;;12.40;99.90;;;;;;5072093;28;20059;-77
2022/06/28 01:55:49;;;;;;;11.52;7.53;;;12.40;99.90;;;;;;5090614;28;20036;-77
2022/06/28 01:58:15;;;;;;;11.25;7.97;;;12.40;99.90;;;;;;5088989;28;20044;-78
2022/06/28 02:00:41;;;;;;;14.43;7.90;;;12.40;99.90;;;;;;5072465;28;20056;-76
2022/06/28 02:03:07;;;;;;;11.75;7.60;;;12.40;99.90;;;;;;5071840;28;20502;-77
2022/06/28 02:05:34;;;;;;;14.38;8.00;;;12.50;99.90;;;;;;5072094;28;20046;-78
2022/06/28 02:08:01;;;;;;;12.90;8.23;;;12.40;99.90;;;;;;5072380;28;20415;-77
2022/06/28 02:10:26;;;;;;;12.05;7.28;;;12.30;99.90;;;;;;5089273;28;20130;-77
2022/06/28 02:12:53;;;;;;;11.10;8.00;;;12.50;99.90;;;;;;5090187;28;20602;-77
2022/06/28 02:15:19;;;;;;;12.85;8.30;;;12.30;99.90;;;;;;5071935;28;20059;-77
2022/06/28 02:17:45;;;;;;;17.67;9.65;;;12.40;99.90;;;;;;5089794;28;20140;-77
2022/06/28 02:20:12;;;;;;;11.38;7.53;;;12.30;99.90;;;;;;5097495;22;20063;-77
2022/06/28 02:22:39;;;;;;;12.00;7.50;;;12.30;99.90;;;;;;5091667;28;20044;-76
2022/06/28 02:25:05;;;;;;;14.75;8.50;;;12.30;99.90;;;;;;5093918;28;20475;-76
2022/06/28 02:27:31;;;;;;;14.68;8.32;;;12.30;99.90;;;;;;5094177;28;20436;-77
2022/06/28 02:29:56;;;;;;;10.40;7.57;;;12.60;99.90;;;;;;5094374;28;20052;-77
2022/06/28 02:32:22;;;;;;;10.93;8.13;;;12.30;99.90;;;;;;5093892;28;20061;-77
2022/06/28 02:40:22;;;;;;;13.17;8.50;;;12.30;99.90;;;;;;5093731;28;20604;-77
2022/06/28 02:42:48;;;;;;;11.40;7.97;;;12.30;99.90;;;;;;5093772;28;20035;-77
2022/06/28 02:45:14;;;;;;;14.48;8.48;;;12.30;99.90;;;;;;5093742;28;20048;-76
2022/06/28 02:47:40;;;;;;;11.85;7.93;;;12.30;99.90;;;;;;5093569;28;20039;-76
2022/06/28 02:50:06;;;;;;;12.13;7.70;;;12.20;99.90;;;;;;5093243;28;20372;-77
2022/06/28 02:52:32;;;;;;;14.43;7.93;;;12.20;99.90;;;;;;5093564;28;20776;-77
2022/06/28 02:54:58;;;;;;;11.55;7.50;;;12.40;99.90;;;;;;5093413;28;20105;-77
2022/06/28 02:57:23;;;;;;;14.32;8.10;;;12.10;99.90;;;;;;5093405;28;20051;-77
2022/06/28 02:59:49;;;;;;;10.05;7.28;;;12.10;99.90;;;;;;5093268;28;20862;-77
2022/06/28 03:02:15;;;;;;;13.13;8.23;;;12.10;99.90;;;;;;5074356;28;20060;-77
2022/06/28 03:04:40;;;;;;;13.10;7.90;;;12.10;99.90;;;;;;5093035;28;20044;-76
2022/06/28 03:07:06;;;;;;;11.90;7.75;;;12.10;99.90;;;;;;5093217;28;20063;-76
2022/06/28 03:09:31;;;;;;;10.95;7.45;;;12.10;99.90;;;;;;5075137;28;20051;-77
2022/06/28 03:11:57;;;;;;;13.45;7.25;;;12.10;99.90;;;;;;5093409;28;20044;-76
2022/06/28 03:14:23;;;;;;;13.55;8.02;;;12.10;99.90;;;;;;5092907;28;20080;-77
2022/06/28 03:16:48;;;;;;;9.23;7.28;;;12.00;99.90;;;;;;5074886;28;20131;-77
2022/06/28 03:19:14;;;;;;;12.60;8.40;;;12.00;99.90;;;;;;5092852;28;20048;-77
2022/06/28 03:21:40;;;;;;;12.68;7.35;;;12.00;99.90;;;;;;5092930;28;20043;-76
2022/06/28 03:24:06;;;;;;;10.00;7.32;;;12.10;99.90;;;;;;5075275;28;20055;-76
2022/06/28 03:26:32;;;;;;;13.07;7.80;;;12.00;99.90;;;;;;5092890;28;20044;-76
2022/06/28 03:28:58;;;;;;;13.55;8.27;;;12.50;99.90;;;;;;5074588;28;20100;-76
2022/06/28 03:31:23;;;;;;;12.23;8.10;;;12.00;99.90;;;;;;5092990;28;20690;-77
2022/06/28 03:33:49;;;;;;;12.85;7.70;;;11.90;99.90;;;;;;5092476;28;20040;-77
2022/06/28 03:36:24;;;;;;;13.82;7.50;;;12.00;99.90;;;;;;5092371;28;20055;-77
2022/06/28 03:38:50;;;;;;;11.88;7.05;;;11.90;99.90;;;;;;5092512;28;20052;-77
2022/06/28 03:41:22;;;;;;;11.23;7.20;;;11.90;99.90;;;;;;5092789;28;20032;-77
2022/06/28 03:43:52;;;;;;;10.23;6.90;;;11.90;99.90;;;;;;5092599;28;20048;-77
2022/06/28 03:46:19;;;;;;;11.75;7.03;;;11.90;99.90;;;;;;5092618;28;20052;-77
2022/06/28 03:48:46;;;;;;;10.63;6.50;;;12.00;99.90;;;;;;5092552;28;20036;-77
2022/06/28 03:51:12;;;;;;;13.63;8.15;;;12.10;99.90;;;;;;5092548;28;20499;-77
2022/06/28 03:53:38;;;;;;;11.57;7.43;;;11.90;99.90;;;;;;5092482;28;20047;-78
2022/06/28 03:56:07;;;;;;;11.52;7.40;;;11.90;99.90;;;;;;5092286;28;20052;-77
2022/06/28 03:58:34;;;;;;;12.95;6.80;;;12.40;99.90;;;;;;5057413;28;20185;-77
2022/06/28 04:01:00;;;;;;;12.38;7.38;;;12.30;99.90;;;;;;5092210;28;20036;-77
2022/06/28 04:03:26;;;;;;;12.23;6.90;;;12.00;99.90;;;;;;5092123;28;20059;-77
2022/06/28 04:05:52;;;;;;;12.52;7.10;;;11.90;99.90;;;;;;5091735;28;20399;-77
2022/06/28 04:08:17;;;;;;;9.68;6.78;;;11.90;99.90;;;;;;5092218;28;20122;-76
2022/06/28 04:10:44;;;;;;;9.88;7.80;;;11.90;99.90;;;;;;5091972;28;20547;-77
2022/06/28 04:13:10;;;;;;;12.90;6.78;;;11.90;99.90;;;;;;5091682;28;20070;-75
2022/06/28 04:15:37;;;;;;;15.32;7.13;;;11.90;99.90;;;;;;5092038;28;20051;-78
2022/06/28 04:18:04;;;;;;;13.55;7.45;;;11.90;99.90;;;;;;5091701;28;20511;-75
2022/06/28 04:20:30;;;;;;;10.13;6.88;;;12.00;99.90;;;;;;5091673;28;20059;-78
2022/06/28 04:22:55;;;;;;;11.32;6.78;;;12.00;99.90;;;;;;5091687;28;20051;-76
2022/06/28 04:25:21;;;;;;;13.15;6.50;;;12.00;99.90;;;;;;5091749;28;20041;-77
2022/06/28 04:27:47;;;;;;;12.77;6.80;;;12.00;99.90;;;;;;5073895;28;20056;-77
2022/06/28 04:30:13;;;;;;;11.50;7.18;;;12.00;99.90;;;;;;5091851;28;20048;-77
2022/06/28 04:32:39;;;;;;;11.82;6.75;;;12.10;99.90;;;;;;5091493;28;20041;-77
2022/06/28 04:35:06;;;;;;;8.43;6.18;;;12.20;99.90;;;;;;5091483;28;20059;-78
2022/06/28 04:37:31;;;;;;;11.45;6.55;;;12.20;99.90;;;;;;5091678;28;20040;-77
2022/06/28 04:39:57;;;;;;;16.05;6.93;;;12.30;99.90;;;;;;5091690;28;20380;-77
2022/06/28 04:42:22;;;;;;;11.60;7.32;;;12.30;99.90;;;;;;5091503;28;20141;-77
2022/06/28 04:44:48;;;;;;;15.43;7.68;;;12.30;99.90;;;;;;5090895;28;20051;-78
2022/06/28 04:47:14;;;;;;;10.90;6.63;;;12.40;99.90;;;;;;5073545;28;20070;-77
2022/06/28 04:49:39;;;;;;;12.45;6.40;;;12.40;99.90;;;;;;5073014;28;20078;-78
2022/06/28 04:52:06;;;;;;;10.38;6.22;;;12.40;99.90;;;;;;5089810;28;20052;-79
2022/06/28 04:54:32;;;;;;;13.70;7.25;;;12.50;99.90;;;;;;5089932;28;20059;-78
2022/06/28 04:56:57;;;;;;;11.18;6.65;;;12.70;99.90;;;;;;5073152;28;20047;-78
2022/06/28 04:59:23;;;;;;;10.60;6.43;;;12.60;99.90;;;;;;5091218;28;20498;-76
2022/06/28 05:01:49;;;;;;;14.15;6.20;;;12.70;99.90;;;;;;5091221;28;20032;-78
2022/06/28 05:04:14;;;;;;;14.70;6.72;;;12.80;99.90;;;;;;5091142;28;20040;-79
2022/06/28 05:06:40;;;;;;;15.82;7.30;;;13.00;99.90;;;;;;5090851;28;20047;-78
2022/06/28 05:09:06;;;;;;;10.75;6.82;;;12.90;99.90;;;;;;5090803;28;20044;-77
2022/06/28 05:11:35;;;;;;;13.05;6.90;;;13.00;99.90;;;;;;5090983;28;20044;-79
2022/06/28 05:14:04;;;;;;;13.00;7.10;;;13.10;99.90;;;;;;5090982;28;20437;-77
2022/06/28 05:16:30;;;;;;;12.82;6.82;;;13.20;99.90;;;;;;5090916;28;20044;-77
2022/06/28 05:18:56;;;;;;;12.23;7.18;;;13.40;99.90;;;;;;5090792;28;20048;-77
2022/06/28 05:21:21;;;;;;;11.93;6.88;;;13.30;99.90;;;;;;5090932;28;20135;-79
2022/06/28 05:23:47;;;;;;;13.88;6.40;;;13.60;99.90;;;;;;5090771;28;20513;-78
2022/06/28 05:26:13;;;;;;;13.95;7.25;;;13.60;99.90;;;;;;5091197;28;20036;-77
2022/06/28 05:28:38;;;;;;;15.52;6.22;;;13.60;99.90;;;;;;5090892;28;20058;-78
2022/06/28 05:31:04;;;;;;;12.80;6.60;;;13.70;99.90;;;;;;5090859;28;20040;-77
2022/06/28 05:33:30;;;;;;;11.02;6.18;;;13.80;99.90;;;;;;5090718;28;20479;-79
2022/06/28 05:35:56;;;;;;;15.13;6.50;;;13.90;99.90;;;;;;5090509;28;20044;-79
2022/06/28 05:38:22;;;;;;;9.98;5.97;;;14.00;99.90;;;;;;5090190;28;20079;-78
2022/06/28 05:40:48;;;;;;;12.50;6.93;;;14.10;99.90;;;;;;5090418;28;20043;-81
2022/06/28 05:43:13;;;;;;;7.82;5.95;;;14.40;99.90;;;;;;5090826;28;20119;-79
2022/06/28 05:45:39;;;;;;;14.52;6.22;;;14.40;99.90;;;;;;5090696;28;20119;-77
2022/06/28 05:48:05;;;;;;;14.80;7.20;;;14.40;99.90;;;;;;5090541;28;20471;-76
2022/06/28 05:50:31;;;;;;;12.88;5.47;;;14.50;99.90;;;;;;5090263;28;20040;-77
2022/06/28 05:52:56;;;;;;;13.23;5.60;;;14.70;99.90;;;;;;5090357;28;20390;-76
2022/06/28 05:55:22;;;;;;;9.85;4.80;;;14.70;99.90;;;;;;5090242;28;20044;-76
2022/06/28 05:57:48;;;;;;;12.63;5.13;;;14.80;99.90;;;;;;5094374;28;20044;-77
2022/06/28 06:00:15;;;;;;;12.20;5.15;;;15.00;99.90;;;;;;5094752;28;20498;-77
2022/06/28 06:02:41;;;;;;;11.25;4.82;;;15.10;99.90;;;;;;5094456;28;20051;-79
2022/06/28 06:05:07;;;;;;;11.93;5.18;;;15.10;99.90;;;;;;5076608;28;20130;-76
2022/06/28 06:07:33;;;;;;;10.73;5.00;;;15.20;99.90;;;;;;5094321;28;20502;-76
2022/06/28 06:09:58;;;;;;;10.98;5.18;;;15.40;99.90;;;;;;5094221;28;20047;-77
2022/06/28 06:12:24;;;;;;;10.82;4.93;;;15.40;99.90;;;;;;5094353;28;20394;-77
2022/06/28 06:14:50;;;;;;;10.13;4.85;;;15.50;99.90;;;;;;5094264;28;20059;-77
2022/06/28 06:17:15;;;;;;;7.50;4.13;;;15.80;99.90;;;;;;5094232;28;20044;-78
2022/06/28 06:19:45;;;;;;;11.05;4.43;;;15.70;99.90;;;;;;5094004;28;20056;-78
2022/06/28 06:22:14;;;;;;;13.48;4.57;;;15.80;99.90;;;;;;5076433;28;20491;-76
2022/06/28 06:24:39;;;;;;;11.35;4.40;;;16.10;99.90;;;;;;5093811;28;20052;-77
2022/06/28 06:27:05;;;;;;;11.55;4.78;;;16.10;99.90;;;;;;5094162;28;20032;-79
2022/06/28 06:29:31;;;;;;;12.35;4.95;;;16.30;99.90;;;;;;5094096;28;20051;-78
2022/06/28 06:31:57;;;;;;;9.25;4.72;;;16.40;99.90;;;;;;5093888;28;20392;-78
2022/06/28 06:34:28;;;;;;;13.07;4.70;;;16.50;99.90;;;;;;5093876;28;20079;-78
2022/06/28 06:36:54;;;;;;;12.82;3.78;;;16.70;99.90;;;;;;5093665;28;20066;-77
2022/06/28 06:39:19;;;;;;;8.63;3.78;;;17.00;99.90;;;;;;5094073;28;20044;-77
2022/06/28 06:41:45;;;;;;;11.15;3.50;;;17.10;99.90;;;;;;5093586;28;20079;-77
2022/06/28 06:44:11;;;;;;;11.50;3.30;;;17.30;99.90;;;;;;5093966;28;20078;-77
2022/06/28 06:46:38;;;;;;;12.55;3.25;;;17.60;99.90;;;;;;5093492;28;20146;-76
2022/06/28 06:49:04;;;;;;;11.82;3.67;;;17.80;99.90;;;;;;5093515;28;20384;-78
2022/06/28 06:51:30;;;;;;;13.63;3.53;;;18.00;99.90;;;;;;5093434;28;20069;-76
2022/06/28 06:53:57;;;;;;;7.60;2.83;;;18.20;99.90;;;;;;5093373;28;20128;-78
2022/06/28 06:56:25;;;;;;;10.15;3.22;;;18.40;99.90;;;;;;5093283;28;20047;-76
2022/06/28 06:58:51;;;;;;;10.63;2.92;;;18.50;99.90;;;;;;5093348;28;20048;-75
2022/06/28 07:01:17;;;;;;;6.82;2.90;;;18.60;99.90;;;;;;5093476;28;20048;-75
2022/06/28 07:03:46;;;;;;;11.05;2.90;;;18.70;99.90;;;;;;5093468;28;20051;-78
2022/06/28 07:06:13;;;;;;;11.25;3.05;;;19.10;99.90;;;;;;5093241;28;20054;-75
2022/06/28 07:08:39;;;;;;;8.18;2.60;;;19.20;99.90;;;;;;5092990;28;20082;-76
2022/06/28 07:11:05;;;;;;;11.23;2.47;;;19.50;99.90;;;;;;5075082;28;20101;-76
2022/06/28 07:13:31;;;;;;;14.85;2.50;;;19.50;99.90;;;;;;5093362;28;20044;-76
2022/06/28 07:15:57;;;;;;;12.82;3.65;;;19.50;99.90;;;;;;5093271;28;20126;-76
2022/06/28 07:18:23;;;;;;;10.55;2.80;;;19.70;99.90;;;;;;5075039;28;20109;-75
2022/06/28 07:20:52;;;;;;;10.02;2.35;;;20.00;99.90;;;;;;5093110;28;20052;-77
2022/06/28 07:23:18;;;;;;;9.90;2.72;;;20.30;99.90;;;;;;5093254;28;20056;-75
2022/06/28 07:25:44;;;;;;;11.23;2.72;;;20.50;99.90;;;;;;5093239;28;20086;-75
2022/06/28 07:28:10;;;;;;;13.43;2.50;;;20.90;99.90;;;;;;5092675;28;20664;-75
2022/06/28 07:30:37;;;;;;;10.45;2.55;;;21.00;99.90;;;;;;5092688;28;20544;-78
2022/06/28 07:33:03;;;;;;;8.75;2.20;;;21.20;99.90;;;;;;5074174;28;20594;-75
2022/06/28 07:35:28;;;;;;;9.55;1.70;;;21.20;99.90;;;;;;5093028;28;20105;-75
2022/06/28 07:37:57;;;;;;;9.52;1.80;;;21.30;99.90;;;;;;5092612;28;20475;-76
2022/06/28 07:40:23;;;;;;;9.23;1.52;;;21.40;99.90;;;;;;5093080;28;20123;-77
2022/06/28 07:42:49;;;;;;;12.27;2.10;;;21.30;99.90;;;;;;5092568;28;20124;-78
2022/06/28 07:45:15;;;;;;;7.20;1.85;;;21.40;99.90;;;;;;5092535;28;20372;-76
2022/06/28 07:47:41;;;;;;;8.68;1.92;;;21.60;99.90;;;;;;5074317;28;20528;-77
2022/06/28 07:52:59;;;;;;;19.40;2.03;;;21.90;99.90;;;;;;5092494;28;20048;-77
2022/06/28 07:55:32;;;;;;;10.50;1.85;;;22.00;99.90;;;;;;5074394;28;20566;-77
2022/06/28 07:58:18;;;;;;;10.07;1.73;;;22.00;99.90;;;;;;5092100;28;20083;-77
2022/06/28 08:00:44;;;;;;;8.07;1.55;;;22.10;99.90;;;;;;5091792;28;20113;-77
2022/06/28 08:03:11;;;;;;;6.70;1.65;;;22.20;99.90;;;;;;5073817;28;20848;-76
2022/06/28 08:05:37;;;;;;;9.40;1.85;;;22.20;99.90;;;;;;5092375;28;20104;-78
2022/06/28 08:08:03;;;;;;;8.68;1.30;;;22.00;99.90;;;;;;5092242;28;20039;-76
2022/06/28 08:10:29;;;;;;;8.73;0.95;;;21.80;99.90;;;;;;5091985;28;20048;-77
2022/06/28 08:12:54;;;;;;;7.80;1.17;;;21.50;99.90;;;;;;5091727;28;20044;-76
2022/06/28 08:15:23;;;;;;;7.07;1.10;;;21.50;99.90;;;;;;5091718;28;20065;-77
2022/06/28 08:17:48;;;;;;;9.68;1.45;;;21.70;99.90;;;;;;5091766;28;20056;-78
2022/06/28 08:20:14;;;;;;;5.28;0.90;;;21.70;99.90;;;;;;5090815;28;20064;-78
2022/06/28 08:22:40;;;;;;;8.32;1.48;;;21.70;99.90;;;;;;5091785;28;20396;-76
2022/06/28 08:25:06;;;;;;;5.40;0.80;;;21.80;99.90;;;;;;5091708;28;20364;-77
2022/06/28 08:27:35;;;;;;;4.70;0.95;;;21.80;99.90;;;;;;5091804;28;20493;-78
2022/06/28 08:30:02;;;;;;;8.05;1.20;;;22.00;99.90;;;;;;5091338;28;20047;-76
2022/06/28 08:32:27;;;;;;;10.02;1.60;;;22.10;99.90;;;;;;5091581;28;20055;-76
2022/06/28 08:34:53;;;;;;;10.25;1.33;;;21.90;99.90;;;;;;5091733;28;20048;-75
2022/06/28 08:37:19;;;;;;;6.25;1.08;;;21.90;99.90;;;;;;5091623;28;20089;-78
2022/06/28 08:39:44;;;;;;;7.07;0.90;;;22.10;99.90;;;;;;5091383;28;20044;-77
2022/06/28 08:42:14;;;;;;;6.38;1.17;;;22.20;99.90;;;;;;5091552;28;20039;-76
2022/06/28 08:44:40;;;;;;;9.23;1.42;;;22.20;99.90;;;;;;5091134;28;20055;-77
2022/06/28 08:47:14;;;;;;;12.30;2.15;;;22.40;99.90;;;;;;5091310;28;20046;-80
2022/06/28 08:50:22;;;;;;;8.55;1.20;;;22.50;99.90;;;;;;5091571;28;20048;-76
2022/06/28 08:52:54;;;;;;;9.70;1.50;;;22.70;99.90;;;;;;5091410;28;20127;-77
2022/06/28 08:55:30;;;;;;;10.77;1.58;;;22.80;99.90;;;;;;5091088;28;20407;-77
2022/06/28 08:58:06;;;;;;;8.13;1.85;;;22.90;99.90;;;;;;5091117;28;20523;-76
2022/06/28 09:00:32;;;;;;;8.70;1.52;;;22.90;99.90;;;;;;5090749;28;20123;-76
2022/06/28 09:02:58;;;;;;;10.43;2.13;;;22.70;99.90;;;;;;5091231;28;20036;-76
2022/06/28 09:05:26;;;;;;;9.10;1.30;;;22.50;99.90;;;;;;5090885;28;20043;-77
2022/06/28 09:07:53;;;;;;;10.70;1.40;;;22.20;99.90;;;;;;5090982;28;20046;-78
2022/06/28 09:10:19;;;;;;;6.35;1.58;;;22.00;99.90;;;;;;5072582;28;20044;-78
2022/06/28 09:12:54;;;;;;;5.75;1.20;;;21.80;99.90;;;;;;5072721;28;20135;-77
2022/06/28 09:15:24;;;;;;;9.02;1.58;;;21.60;99.90;;;;;;5090749;28;20058;-76
2022/06/28 09:17:55;;;;;;;8.18;1.20;;;21.40;99.90;;;;;;5090875;28;20544;-77
2022/06/28 09:20:38;;;;;;;6.57;1.65;;;21.20;99.90;;;;;;5090666;28;20052;-78
2022/06/28 09:23:19;;;;;;;10.00;1.83;;;21.00;99.90;;;;;;5090741;28;20044;-77
2022/06/28 09:25:45;;;;;;;11.60;1.70;;;20.70;99.90;;;;;;5072617;28;20040;-77
2022/06/28 09:28:10;;;;;;;6.85;1.35;;;20.50;99.90;;;;;;5090887;28;20036;-76
2022/06/28 09:30:37;;;;;;;8.60;1.85;;;20.40;99.90;;;;;;5090472;28;20088;-78
2022/06/28 09:33:03;;;;;;;9.50;1.52;;;20.70;99.90;;;;;;5091006;28;20124;-77
2022/06/28 09:35:29;;;;;;;11.13;1.85;;;20.80;99.90;;;;;;5090704;28;20044;-77
2022/06/28 09:37:54;;;;;;;7.97;1.40;;;21.10;99.90;;;;;;5090727;28;20100;-78
2022/06/28 09:40:26;;;;;;;8.73;1.65;;;21.50;99.90;;;;;;5090891;28;20040;-78
2022/06/28 09:43:12;;;;;;;10.05;1.55;;;21.60;99.90;;;;;;5090584;28;20142;-78
2022/06/28 09:45:40;;;;;;;10.23;1.98;;;21.80;99.90;;;;;;5090536;28;20500;-77
2022/06/28 09:48:07;;;;;;;8.60;1.75;;;22.00;99.90;;;;;;5071764;28;20079;-77
2022/06/28 09:50:40;;;;;;;11.43;1.40;;;22.20;99.90;;;;;;5090722;28;20079;-76
2022/06/28 09:53:07;;;;;;;6.17;1.30;;;22.30;99.90;;;;;;5089434;28;20123;-78
2022/06/28 09:55:33;;;;;;;8.93;1.52;;;22.30;99.90;;;;;;5090932;28;20044;-76
2022/06/28 09:58:01;;;;;;;10.15;1.60;;;22.50;99.90;;;;;;5090617;28;20040;-76
2022/06/28 10:00:27;;;;;;;7.82;1.48;;;22.50;99.90;;;;;;5090487;28;20126;-76
2022/06/28 10:02:57;;;;;;;8.05;1.25;;;22.70;99.90;;;;;;5089881;28;20052;-79
2022/06/28 10:05:24;;;;;;;5.00;1.25;;;22.70;99.90;;;;;;5090306;28;20055;-79
2022/06/28 10:07:50;;;;;;;7.45;1.50;;;22.80;99.90;;;;;;5090605;28;20039;-77
2022/06/28 10:10:16;;;;;;;7.57;1.30;;;22.90;99.90;;;;;;5090408;28;20115;-76
2022/06/28 10:15:33;;;;;;;4.63;1.08;;;23.10;99.90;;;;;;5089939;28;20040;-77
2022/06/28 10:18:08;;;;;;;9.20;1.65;;;23.30;99.90;;;;;;5089922;28;20573;-77
2022/06/28 10:20:39;;;;;;;9.80;1.67;;;23.20;99.90;;;;;;5089951;28;20597;-77
2022/06/28 10:23:28;;;;;;;7.63;1.10;;;23.40;99.90;;;;;;5090172;28;20165;-77
2022/06/28 10:26:22;;;;;;;8.82;1.77;;;23.30;99.90;;;;;;5090070;28;20122;-77
2022/06/28 10:29:09;;;;;;;7.10;1.57;;;23.10;99.90;;;;;;5089045;28;20391;-78
2022/06/28 10:31:44;;;;;;;7.28;1.50;;;23.10;99.90;;;;;;5089586;28;20321;-78
2022/06/28 10:34:16;;;;;;;7.88;1.67;;;22.90;99.90;;;;;;5089672;28;20493;-77
2022/06/28 10:36:49;;;;;;;8.80;1.55;;;22.70;99.90;;;;;;5071418;28;20123;-80
2022/06/28 10:39:26;;;;;;;11.53;1.50;;;22.60;99.90;;;;;;5089984;28;20048;-80
2022/06/28 10:41:58;;;;;;;7.93;1.65;;;22.90;99.90;;;;;;5090078;28;20048;-80
2022/06/28 10:44:42;;;;;;;8.25;1.20;;;23.10;99.90;;;;;;5092762;28;20040;-75
2022/06/28 10:47:07;;;;;;;6.40;1.20;;;23.10;99.90;;;;;;5093636;28;20653;-79
2022/06/28 10:49:43;;;;;;;9.70;1.55;;;23.00;99.90;;;;;;5093526;28;20135;-78
2022/06/28 10:52:34;;;;;;;7.65;1.55;;;22.70;99.90;;;;;;5093694;28;20071;-80
2022/06/28 10:55:03;;;;;;;8.45;1.40;;;22.70;99.90;;;;;;5093616;28;20709;-78
2022/06/28 10:57:40;;;;;;;13.00;1.27;;;22.50;99.90;;;;;;5076639;28;20415;-78
2022/06/28 11:00:19;;;;;;;8.45;1.20;;;22.50;99.90;;;;;;5093507;28;20044;-79
2022/06/28 11:02:49;;;;;;;6.07;1.25;;;22.50;99.90;;;;;;5093462;28;20051;-79
2022/06/28 11:05:16;;;;;;;12.13;1.70;;;22.60;99.90;;;;;;5074028;28;20059;-79
2022/06/28 11:07:56;;;;;;;7.57;1.40;;;22.60;99.90;;;;;;5093364;28;20032;-80
2022/06/28 11:10:23;;;;;;;6.30;1.45;;;22.40;99.90;;;;;;5093542;28;20170;-79
2022/06/28 11:12:48;;;;;;;7.45;1.73;;;22.30;99.90;;;;;;5093428;28;20044;-80
2022/06/28 11:15:26;;;;;;;6.45;1.15;;;22.30;99.90;;;;;;5093302;28;20380;-78
2022/06/28 11:17:52;;;;;;;6.35;1.25;;;22.40;99.90;;;;;;5075014;28;20056;-76
2022/06/28 11:20:30;;;;;;;4.55;1.10;;;22.50;99.90;;;;;;5075414;28;20102;-78
2022/06/28 11:22:58;;;;;;;8.98;1.25;;;22.50;99.90;;;;;;5093902;28;20052;-79
2022/06/28 11:27:19;;;;;;;7.50;1.58;;;22.70;99.90;;;;;;5093066;28;20047;-77
2022/06/28 11:28:20;;;;;;;7.88;1.80;;;23.00;99.90;;;;;;5093024;28;20128;-79
2022/06/28 11:30:45;;;;;;;7.30;1.25;;;23.30;99.90;;;;;;5091836;28;20181;-80
2022/06/28 11:33:11;;;;;;;8.18;1.20;;;23.50;99.90;;;;;;5092796;28;20123;-78
2022/06/28 11:35:37;;;;;;;6.72;1.70;;;23.30;99.90;;;;;;5092616;28;20040;-77
2022/06/28 11:38:05;;;;;;;9.45;1.25;;;23.10;99.90;;;;;;5092805;28;20048;-79
2022/06/28 11:40:49;;;;;;;4.72;0.98;;;23.00;99.90;;;;;;5092718;28;20050;-77
2022/06/28 11:43:18;;;;;;;5.43;1.40;;;23.30;99.90;;;;;;5092686;28;20040;-79
2022/06/28 11:45:56;;;;;;;8.48;1.40;;;23.30;99.90;;;;;;5092419;28;20051;-78
2022/06/28 11:48:28;;;;;;;7.15;1.55;;;23.10;99.90;;;;;;5092700;28;20047;-76
2022/06/28 11:50:55;;;;;;;5.13;1.30;;;23.30;99.90;;;;;;5092527;28;20040;-78
2022/06/28 11:53:22;;;;;;;7.68;1.80;;;23.30;99.90;;;;;;5092570;28;20052;-79
2022/06/28 11:55:57;;;;;;;8.95;1.27;;;23.60;99.90;;;;;;5092507;28;20044;-79
2022/06/28 11:58:40;;;;;;;7.05;1.20;;;23.80;99.90;;;;;;5092417;28;20051;-77
2022/06/28 12:01:05;;;;;;;7.30;1.20;;;24.00;99.90;;;;;;5104773;22;20138;-80
2022/06/28 12:03:34;;;;;;;7.45;1.70;;;24.10;99.90;;;;;;5112597;28;20499;-81
2022/06/28 12:06:01;;;;;;;6.07;1.20;;;24.30;99.90;;;;;;5112375;28;20067;-81
2022/06/28 12:08:53;;;;;;;9.68;1.30;;;24.00;99.10;;;;;;5094123;28;20482;-81
2022/06/28 12:11:37;;;;;;;5.30;1.13;;;23.90;99.60;;;;;;5113114;28;20039;-81
2022/06/28 12:14:03;;;;;;;6.10;1.05;;;23.90;99.30;;;;;;5112609;28;20496;-79
2022/06/28 12:16:32;;;;;;;5.20;0.98;;;24.30;99.90;;;;;;5112403;28;20047;-78
2022/06/28 12:18:59;;;;;;;7.07;1.20;;;24.20;99.40;;;;;;5112199;28;20058;-83
2022/06/28 12:21:27;;;;;;;8.02;1.92;;;24.20;99.10;;;;;;5111787;28;20126;-81
2022/06/28 12:23:55;;;;;;;6.32;1.00;;;24.20;99.60;;;;;;5112279;28;20124;-81
2022/06/28 12:26:35;;;;;;;4.82;1.20;;;24.50;99.40;;;;;;5112488;28;20633;-82
2022/06/28 12:29:01;;;;;;;6.82;1.00;;;24.70;99.20;;;;;;5093939;28;20035;-82
2022/06/28 12:31:27;;;;;;;6.22;0.80;;;24.70;97.10;;;;;;5112142;28;20070;-81
2022/06/28 12:33:53;;;;;;;8.30;1.60;;;24.70;98.90;;;;;;5093856;28;20054;-80
2022/06/28 12:36:18;;;;;;;4.10;0.80;;;24.90;98.30;;;;;;5111754;28;20055;-83
2022/06/28 12:38:44;;;;;;;3.30;0.90;;;25.10;97.30;;;;;;5093433;28;20422;-78
2022/06/28 12:41:10;;;;;;;6.03;1.15;;;25.10;97.30;;;;;;5093664;28;20114;-79
2022/06/28 12:43:35;;;;;;;3.53;0.88;;;25.10;98.10;;;;;;5093617;28;20043;-77
2022/06/28 12:46:01;;;;;;;4.35;0.90;;;25.20;97.30;;;;;;5111867;28;20089;-80
2022/06/28 12:48:26;;;;;;;5.05;1.20;;;25.30;97.50;;;;;;5111681;28;20043;-79
2022/06/28 12:50:52;;;;;;;5.47;1.00;;;25.30;96.80;;;;;;5111638;28;20089;-78
2022/06/28 12:53:20;;;;;;;6.10;1.05;;;25.30;95.50;;;;;;5093189;28;20051;-78
2022/06/28 12:55:49;;;;;;;4.93;0.90;;;25.50;96.70;;;;;;5111744;28;20051;-77
2022/06/28 12:58:14;;;;;;;5.10;1.05;;;25.40;96.00;;;;;;5111555;28;20051;-77